Time;durP1;ratioP1;P1;durP2;ratioP2;P2;SDS_P1;SDS_P2;PMS_P1;PMS_P2;Temp;Humidity;BMP_temperature;BMP_pressure;BME280_temperature;BME280_humidity;BME280_pressure;Samples;Min_cycle;Max_cycle;Signal;HPM_P1;HPM_P2
2023/11/20 00:00:37;;;;;;;4.78;2.17;;;16.20;71.40;;;;;;5052338;28;20292;-68
2023/11/20 00:03:03;;;;;;;3.97;1.83;;;16.20;71.50;;;;;;5051717;28;20266;-67
2023/11/20 00:05:28;;;;;;;4.57;1.83;;;16.20;71.50;;;;;;5052567;28;20265;-68
2023/11/20 00:07:54;;;;;;;4.05;1.67;;;16.20;71.40;;;;;;5052642;28;20313;-68
2023/11/20 00:10:19;;;;;;;4.30;1.90;;;16.20;71.50;;;;;;5051405;28;20280;-67
2023/11/20 00:12:45;;;;;;;3.42;1.80;;;16.20;71.50;;;;;;5052326;28;20653;-68
2023/11/20 00:15:11;;;;;;;4.38;1.63;;;16.10;71.40;;;;;;5052281;28;20179;-66
2023/11/20 00:17:37;;;;;;;3.88;1.90;;;16.10;71.40;;;;;;5051814;28;20186;-67
2023/11/20 00:20:05;;;;;;;3.38;1.88;;;16.10;71.40;;;;;;5052067;28;20202;-67
2023/11/20 00:22:30;;;;;;;3.67;1.80;;;16.10;71.40;;;;;;5052253;28;20630;-67
2023/11/20 00:24:56;;;;;;;5.47;2.25;;;16.10;71.40;;;;;;5051311;28;20179;-68
2023/11/20 00:27:21;;;;;;;4.57;1.60;;;16.10;71.40;;;;;;5051918;28;20185;-68
2023/11/20 00:29:47;;;;;;;4.10;1.75;;;16.10;71.40;;;;;;5052405;28;20253;-68
2023/11/20 00:32:13;;;;;;;5.03;2.22;;;16.10;71.40;;;;;;5051352;28;20171;-68
2023/11/20 00:34:41;;;;;;;4.32;1.88;;;16.10;71.40;;;;;;5052280;28;20175;-68
2023/11/20 00:37:07;;;;;;;4.93;2.10;;;16.10;71.40;;;;;;5051912;28;20175;-67
2023/11/20 00:39:32;;;;;;;4.53;1.90;;;16.10;71.40;;;;;;5051446;28;20261;-68
2023/11/20 00:41:58;;;;;;;4.35;1.92;;;16.00;71.40;;;;;;5051807;28;20198;-68
2023/11/20 00:44:23;;;;;;;4.72;2.10;;;16.10;71.50;;;;;;5052752;28;20195;-69
2023/11/20 00:46:49;;;;;;;4.55;1.70;;;16.10;71.50;;;;;;5052110;28;20538;-68
2023/11/20 00:49:14;;;;;;;5.20;2.10;;;16.00;71.40;;;;;;5052365;28;20260;-68
2023/11/20 00:51:40;;;;;;;4.00;1.90;;;16.00;71.40;;;;;;5051961;28;20187;-68
2023/11/20 00:54:06;;;;;;;5.35;2.15;;;16.00;71.40;;;;;;5052599;28;20570;-67
2023/11/20 00:56:32;;;;;;;3.67;1.92;;;16.00;71.40;;;;;;5051631;28;20194;-68
2023/11/20 00:58:58;;;;;;;5.50;2.08;;;16.00;71.40;;;;;;5051550;28;20175;-67
2023/11/20 01:01:23;;;;;;;4.50;2.08;;;16.00;71.40;;;;;;5051817;28;20687;-68
2023/11/20 01:03:49;;;;;;;3.95;1.90;;;16.00;71.40;;;;;;5052036;28;20543;-69
2023/11/20 01:06:14;;;;;;;6.00;1.85;;;16.00;71.40;;;;;;5050557;28;20217;-67
2023/11/20 01:08:40;;;;;;;3.85;1.70;;;16.00;71.40;;;;;;5051558;28;20225;-68
2023/11/20 01:11:09;;;;;;;4.30;1.85;;;16.00;71.40;;;;;;5051791;28;20171;-66
2023/11/20 01:13:38;;;;;;;4.68;1.92;;;16.00;71.40;;;;;;5051115;28;20186;-67
2023/11/20 01:16:05;;;;;;;4.78;1.80;;;16.00;71.40;;;;;;5051580;28;20644;-66
2023/11/20 01:18:33;;;;;;;5.30;2.20;;;16.00;71.40;;;;;;5051457;28;20179;-67
2023/11/20 01:20:59;;;;;;;4.57;1.77;;;16.00;71.40;;;;;;5051154;28;20175;-67
2023/11/20 01:23:25;;;;;;;3.08;1.63;;;16.00;71.40;;;;;;5051433;28;20186;-66
2023/11/20 01:25:51;;;;;;;5.38;2.05;;;15.90;71.30;;;;;;5051905;28;20179;-67
2023/11/20 01:28:16;;;;;;;3.50;1.35;;;15.90;71.30;;;;;;5050936;28;20662;-67
2023/11/20 01:30:42;;;;;;;4.07;1.70;;;15.90;71.30;;;;;;5051746;28;20581;-68
2023/11/20 01:33:07;;;;;;;4.00;2.03;;;15.90;71.30;;;;;;5051723;28;20535;-68
2023/11/20 01:35:33;;;;;;;4.57;1.83;;;15.90;71.30;;;;;;5051192;28;20579;-67
2023/11/20 01:37:58;;;;;;;4.80;1.92;;;15.90;71.30;;;;;;5055500;28;20174;-68
2023/11/20 01:40:24;;;;;;;4.95;2.05;;;15.90;71.30;;;;;;5055412;28;20532;-67
2023/11/20 01:42:52;;;;;;;4.65;2.05;;;15.90;71.30;;;;;;5054710;28;20630;-68
2023/11/20 01:45:18;;;;;;;3.72;1.90;;;15.90;71.30;;;;;;5055090;28;20205;-68
2023/11/20 01:47:43;;;;;;;3.45;1.73;;;15.90;71.40;;;;;;5055191;28;20622;-68
2023/11/20 01:50:10;;;;;;;3.90;1.70;;;15.90;71.30;;;;;;5054342;28;20237;-67
2023/11/20 01:52:39;;;;;;;4.65;1.92;;;15.90;71.30;;;;;;5054772;28;20685;-68
2023/11/20 01:55:05;;;;;;;5.10;1.70;;;15.90;71.30;;;;;;5053471;28;20187;-67
2023/11/20 01:57:30;;;;;;;3.95;1.73;;;15.90;71.30;;;;;;5054979;28;20175;-67
2023/11/20 01:59:56;;;;;;;4.72;1.90;;;15.90;71.40;;;;;;5055189;28;20543;-67
2023/11/20 02:02:22;;;;;;;3.50;1.77;;;15.90;71.30;;;;;;5054102;28;20667;-67
2023/11/20 02:04:50;;;;;;;3.50;1.80;;;15.90;71.30;;;;;;5053661;28;20198;-67
2023/11/20 02:07:16;;;;;;;3.75;1.75;;;15.90;71.30;;;;;;5036936;28;20229;-67
2023/11/20 02:09:42;;;;;;;3.75;1.88;;;15.90;71.30;;;;;;5053064;28;20643;-67
2023/11/20 02:12:07;;;;;;;3.63;1.88;;;15.90;71.30;;;;;;5054902;28;20175;-65
2023/11/20 02:14:39;;;;;;;5.85;2.10;;;15.80;71.20;;;;;;5054511;28;21035;-67
2023/11/20 02:17:04;;;;;;;3.30;1.73;;;15.90;71.30;;;;;;5053779;28;20175;-66
2023/11/20 02:19:30;;;;;;;3.90;1.80;;;15.80;71.20;;;;;;5054296;28;20183;-66
2023/11/20 02:21:55;;;;;;;5.45;1.95;;;15.80;71.20;;;;;;5054313;28;20598;-66
2023/11/20 02:24:22;;;;;;;2.65;1.55;;;15.80;71.20;;;;;;5053644;28;20638;-67
2023/11/20 02:27:10;;;;;;;3.75;1.77;;;15.80;71.20;;;;;;5054250;28;20178;-67
2023/11/20 02:29:54;;;;;;;5.82;2.03;;;15.80;71.20;;;;;;5054050;28;20207;-68
2023/11/20 02:32:23;;;;;;;3.70;1.60;;;15.80;71.20;;;;;;5052339;28;20183;-68
2023/11/20 02:34:51;;;;;;;6.78;2.08;;;15.80;71.20;;;;;;5054324;28;20232;-68
2023/11/20 02:37:16;;;;;;;4.60;1.92;;;15.80;71.20;;;;;;5053594;28;20262;-67
2023/11/20 02:39:42;;;;;;;5.75;1.88;;;15.80;71.20;;;;;;5054244;28;20262;-67
2023/11/20 02:42:08;;;;;;;3.10;1.73;;;15.80;71.20;;;;;;5054349;28;20187;-68
2023/11/20 02:44:40;;;;;;;5.80;1.70;;;15.80;71.20;;;;;;5053217;28;20601;-68
2023/11/20 02:47:06;;;;;;;3.45;1.65;;;15.80;71.20;;;;;;5054254;28;20250;-68
2023/11/20 02:49:35;;;;;;;4.07;1.70;;;15.80;71.20;;;;;;5053919;28;20230;-68
2023/11/20 02:52:03;;;;;;;3.17;1.85;;;15.80;71.20;;;;;;5053503;28;20178;-67
2023/11/20 02:54:29;;;;;;;4.13;1.70;;;15.80;71.20;;;;;;5052634;28;20224;-68
2023/11/20 02:56:56;;;;;;;2.33;1.50;;;15.80;71.20;;;;;;5053885;28;20254;-66
2023/11/20 02:59:22;;;;;;;3.25;1.60;;;15.80;71.20;;;;;;5052923;28;20183;-68
2023/11/20 03:01:48;;;;;;;3.22;1.60;;;15.80;71.20;;;;;;5054117;28;20178;-68
2023/11/20 03:04:18;;;;;;;3.55;2.00;;;15.80;71.20;;;;;;5053484;28;20179;-67
2023/11/20 03:06:44;;;;;;;4.40;1.67;;;15.70;71.10;;;;;;5053303;28;20211;-68
2023/11/20 03:09:09;;;;;;;5.25;2.17;;;15.80;71.20;;;;;;5053678;28;20871;-65
2023/11/20 03:11:42;;;;;;;3.03;1.65;;;15.70;71.10;;;;;;5053385;28;20259;-67
2023/11/20 03:14:07;;;;;;;2.80;1.58;;;15.80;71.20;;;;;;5052970;28;20183;-66
2023/11/20 03:16:33;;;;;;;4.40;1.98;;;15.70;71.10;;;;;;5053261;28;20768;-67
2023/11/20 03:18:59;;;;;;;3.03;1.40;;;15.70;71.10;;;;;;5053523;28;20182;-67
2023/11/20 03:21:27;;;;;;;3.72;1.90;;;15.70;71.10;;;;;;5052538;28;20174;-67
2023/11/20 03:23:53;;;;;;;3.50;1.83;;;15.70;71.10;;;;;;5053568;28;20179;-66
2023/11/20 03:26:22;;;;;;;3.95;1.65;;;15.70;71.10;;;;;;5052987;28;20179;-67
2023/11/20 03:28:47;;;;;;;5.18;1.77;;;15.70;71.10;;;;;;5053297;28;20256;-67
2023/11/20 03:31:13;;;;;;;3.58;1.50;;;15.70;71.10;;;;;;5053233;28;20587;-67
2023/11/20 03:33:38;;;;;;;4.78;1.80;;;15.70;71.10;;;;;;5052109;28;20171;-68
2023/11/20 03:36:04;;;;;;;3.67;1.70;;;15.70;71.10;;;;;;5053250;28;20240;-67
2023/11/20 03:38:30;;;;;;;5.25;2.08;;;15.70;71.10;;;;;;5052866;28;20195;-67
2023/11/20 03:40:55;;;;;;;2.72;1.48;;;15.70;71.10;;;;;;5052383;28;20198;-66
2023/11/20 03:43:21;;;;;;;3.22;1.58;;;15.70;71.10;;;;;;5052671;28;20175;-69
2023/11/20 03:45:47;;;;;;;3.28;2.05;;;15.70;71.10;;;;;;5053188;28;20193;-68
2023/11/20 03:48:13;;;;;;;5.40;1.92;;;15.70;71.10;;;;;;5052303;28;20265;-67
2023/11/20 03:50:38;;;;;;;4.18;1.35;;;15.70;71.10;;;;;;5052547;28;20223;-68
2023/11/20 03:53:04;;;;;;;2.97;1.55;;;15.70;71.10;;;;;;5052923;28;20186;-67
2023/11/20 03:55:29;;;;;;;6.05;2.10;;;15.70;72.00;;;;;;5051826;28;20183;-68
2023/11/20 03:57:55;;;;;;;2.60;1.73;;;15.70;71.10;;;;;;5052613;28;20178;-67
2023/11/20 04:00:20;;;;;;;2.95;1.50;;;15.70;71.10;;;;;;5052322;28;20175;-67
2023/11/20 04:02:46;;;;;;;4.25;1.55;;;15.70;71.10;;;;;;5052135;28;20183;-68
2023/11/20 04:05:11;;;;;;;3.88;1.85;;;15.70;71.10;;;;;;5052804;28;20634;-68
2023/11/20 04:07:37;;;;;;;4.60;1.83;;;15.70;71.10;;;;;;5052301;28;20634;-68
2023/11/20 04:10:04;;;;;;;2.70;1.52;;;15.70;71.10;;;;;;5051776;28;20214;-66
2023/11/20 04:12:30;;;;;;;1.92;1.50;;;15.70;71.10;;;;;;5052556;28;20167;-68
2023/11/20 04:14:56;;;;;;;3.15;1.75;;;15.70;71.10;;;;;;5052350;28;20566;-66
2023/11/20 04:17:21;;;;;;;3.53;1.90;;;15.70;71.10;;;;;;5051537;28;20167;-66
2023/11/20 04:19:47;;;;;;;3.60;1.98;;;15.60;71.10;;;;;;5052553;28;20522;-67
2023/11/20 04:22:12;;;;;;;3.85;1.80;;;15.70;71.10;;;;;;5052334;28;20645;-65
2023/11/20 04:24:38;;;;;;;3.05;1.63;;;15.60;71.00;;;;;;5051383;28;20190;-67
2023/11/20 04:27:04;;;;;;;3.75;1.73;;;15.60;71.00;;;;;;5052544;28;20179;-66
2023/11/20 04:29:30;;;;;;;4.75;1.67;;;15.60;71.00;;;;;;5052106;28;20207;-68
2023/11/20 04:31:55;;;;;;;4.80;1.70;;;15.60;71.10;;;;;;5051781;28;20175;-67
2023/11/20 04:34:21;;;;;;;5.78;1.48;;;15.70;71.10;;;;;;5052024;28;20274;-66
2023/11/20 04:36:46;;;;;;;5.50;2.10;;;15.60;71.00;;;;;;5051504;28;20265;-68
2023/11/20 04:39:12;;;;;;;2.88;1.50;;;15.60;71.00;;;;;;5052154;28;20254;-65
2023/11/20 04:41:39;;;;;;;4.88;1.65;;;15.60;71.00;;;;;;5051697;28;20270;-67
2023/11/20 04:44:07;;;;;;;4.60;1.58;;;15.70;71.00;;;;;;5051475;28;21048;-68
2023/11/20 04:46:34;;;;;;;5.68;1.90;;;15.60;71.00;;;;;;5051980;28;20182;-67
2023/11/20 04:49:00;;;;;;;3.08;1.35;;;15.60;71.00;;;;;;5051890;28;20562;-67
2023/11/20 04:51:25;;;;;;;4.43;1.85;;;15.60;71.00;;;;;;5051102;28;20224;-67
2023/11/20 04:53:51;;;;;;;3.08;1.48;;;15.60;71.00;;;;;;5051932;28;20258;-67
2023/11/20 04:56:16;;;;;;;3.75;1.90;;;15.60;71.00;;;;;;5051876;28;20240;-66
2023/11/20 04:58:44;;;;;;;4.30;1.80;;;15.60;71.00;;;;;;5051138;28;20586;-67
2023/11/20 05:01:11;;;;;;;6.60;1.75;;;15.60;71.00;;;;;;5052189;28;20190;-67
2023/11/20 05:03:37;;;;;;;4.47;1.67;;;15.60;71.00;;;;;;5050436;28;20241;-67
2023/11/20 05:06:07;;;;;;;5.85;1.80;;;15.60;70.90;;;;;;5051339;28;20179;-67
2023/11/20 05:08:33;;;;;;;5.20;1.75;;;15.60;70.90;;;;;;5051333;28;20175;-67
2023/11/20 05:10:58;;;;;;;3.47;1.73;;;15.60;70.90;;;;;;5053241;28;20218;-66
2023/11/20 05:13:24;;;;;;;4.20;1.90;;;15.60;70.90;;;;;;5055055;28;20195;-67
2023/11/20 05:15:51;;;;;;;4.35;1.67;;;15.60;70.90;;;;;;5055882;28;20183;-66
2023/11/20 05:18:16;;;;;;;3.80;1.35;;;15.60;70.90;;;;;;5055622;28;20225;-66
2023/11/20 05:20:42;;;;;;;6.97;2.22;;;15.60;70.90;;;;;;5055156;28;20243;-67
2023/11/20 05:23:08;;;;;;;3.65;1.67;;;15.60;70.90;;;;;;5055684;28;20695;-66
2023/11/20 05:25:35;;;;;;;4.53;2.13;;;15.60;70.90;;;;;;5055601;28;20187;-66
2023/11/20 05:28:01;;;;;;;4.22;2.10;;;15.60;70.90;;;;;;5055161;28;20305;-66
2023/11/20 05:30:26;;;;;;;3.25;1.70;;;15.60;70.90;;;;;;5055315;28;20345;-67
2023/11/20 05:32:52;;;;;;;3.65;1.40;;;15.60;70.90;;;;;;5055341;28;20262;-67
2023/11/20 05:35:18;;;;;;;5.40;1.95;;;15.60;70.90;;;;;;5054648;28;20187;-67
2023/11/20 05:37:44;;;;;;;6.20;2.13;;;15.60;71.00;;;;;;5055263;28;20175;-67
2023/11/20 05:40:10;;;;;;;3.72;1.65;;;15.60;70.90;;;;;;5054895;28;20198;-66
2023/11/20 05:42:35;;;;;;;3.53;1.52;;;15.50;70.80;;;;;;5055124;28;20178;-67
2023/11/20 05:45:01;;;;;;;4.95;1.70;;;15.60;70.90;;;;;;5055211;28;20171;-66
2023/11/20 05:47:26;;;;;;;5.15;1.83;;;15.50;70.90;;;;;;5054347;28;20179;-67
2023/11/20 05:49:53;;;;;;;4.25;1.83;;;15.50;70.90;;;;;;5055068;28;20226;-67
2023/11/20 05:52:18;;;;;;;3.33;1.60;;;15.60;70.90;;;;;;5054746;28;20662;-66
2023/11/20 05:54:44;;;;;;;4.18;1.40;;;15.60;70.90;;;;;;5054681;28;20672;-66
2023/11/20 05:57:10;;;;;;;3.83;1.75;;;15.50;70.80;;;;;;5054862;28;20189;-66
2023/11/20 05:59:36;;;;;;;2.88;1.60;;;15.50;70.80;;;;;;5054860;28;20248;-67
2023/11/20 06:02:01;;;;;;;4.72;1.67;;;15.50;70.90;;;;;;5054348;28;20171;-67
2023/11/20 06:04:27;;;;;;;5.00;1.92;;;15.50;70.90;;;;;;5054747;28;20221;-67
2023/11/20 06:06:55;;;;;;;3.70;1.67;;;15.50;70.80;;;;;;5054818;28;20186;-67
2023/11/20 06:09:21;;;;;;;6.50;1.85;;;15.50;70.80;;;;;;5054010;28;20270;-66
2023/11/20 06:11:48;;;;;;;5.00;1.73;;;15.50;70.80;;;;;;5054996;28;20190;-66
2023/11/20 06:14:14;;;;;;;4.60;1.40;;;15.50;70.80;;;;;;5054704;28;20175;-65
2023/11/20 06:16:39;;;;;;;2.67;1.60;;;15.50;70.80;;;;;;5054183;28;20691;-66
2023/11/20 06:19:05;;;;;;;4.63;1.85;;;15.50;70.80;;;;;;5054720;28;20175;-66
2023/11/20 06:21:31;;;;;;;3.42;1.52;;;15.50;70.80;;;;;;5052596;28;20205;-66
2023/11/20 06:23:56;;;;;;;5.75;2.08;;;15.50;70.80;;;;;;5054078;28;20181;-65
2023/11/20 06:26:22;;;;;;;3.75;1.67;;;15.50;70.80;;;;;;5054352;28;20186;-66
2023/11/20 06:28:48;;;;;;;4.68;1.85;;;15.50;70.80;;;;;;5054583;28;20186;-66
2023/11/20 06:31:13;;;;;;;4.20;1.90;;;15.50;70.80;;;;;;5053754;28;20230;-66
2023/11/20 06:33:39;;;;;;;4.40;1.77;;;15.50;70.80;;;;;;5054488;28;20176;-67
2023/11/20 06:36:06;;;;;;;5.25;1.88;;;15.50;70.80;;;;;;5054347;28;20179;-65
2023/11/20 06:38:32;;;;;;;5.07;2.00;;;15.50;70.70;;;;;;5053397;28;20270;-67
2023/11/20 06:40:58;;;;;;;5.95;2.00;;;15.50;70.70;;;;;;5054458;28;20209;-66
2023/11/20 06:43:23;;;;;;;3.13;1.50;;;15.50;70.70;;;;;;5053252;28;20206;-67
2023/11/20 06:45:49;;;;;;;4.03;1.85;;;15.50;70.80;;;;;;5054272;28;20214;-68
2023/11/20 06:48:14;;;;;;;4.80;1.90;;;15.50;70.70;;;;;;5053985;28;20638;-66
2023/11/20 06:50:40;;;;;;;4.55;1.60;;;15.50;70.80;;;;;;5053128;28;20851;-67
2023/11/20 06:53:08;;;;;;;6.30;1.70;;;15.40;70.60;;;;;;5054111;28;20179;-66
2023/11/20 06:55:34;;;;;;;3.42;1.60;;;15.50;70.60;;;;;;5053942;28;20190;-67
2023/11/20 06:58:00;;;;;;;5.43;1.95;;;15.50;70.60;;;;;;5053303;28;20171;-67
2023/11/20 07:00:25;;;;;;;5.20;2.03;;;15.40;70.60;;;;;;5053796;28;20171;-68
2023/11/20 07:02:52;;;;;;;4.00;1.52;;;15.40;70.60;;;;;;5053858;28;20183;-69
2023/11/20 07:05:18;;;;;;;4.82;1.60;;;15.40;70.60;;;;;;5052862;28;20175;-68
2023/11/20 07:07:53;;;;;;;5.70;1.60;;;15.50;70.60;;;;;;5053969;28;20175;-68
2023/11/20 07:10:22;;;;;;;4.35;1.63;;;15.50;70.60;;;;;;5053485;28;20222;-68
2023/11/20 07:12:53;;;;;;;3.72;1.60;;;15.50;70.60;;;;;;5053095;28;20171;-67
2023/11/20 07:15:22;;;;;;;3.97;1.92;;;15.60;70.50;;;;;;5053342;28;20300;-66
2023/11/20 07:17:47;;;;;;;3.88;1.45;;;15.80;70.40;;;;;;5053601;28;20258;-67
2023/11/20 07:20:13;;;;;;;3.83;1.90;;;15.90;70.30;;;;;;5053168;28;20262;-64
2023/11/20 07:22:42;;;;;;;4.25;1.65;;;16.10;70.00;;;;;;5053713;28;20171;-66
2023/11/20 07:25:08;;;;;;;2.95;1.60;;;16.20;69.70;;;;;;5053556;28;20309;-65
2023/11/20 07:27:36;;;;;;;5.88;1.92;;;16.40;69.40;;;;;;5052564;28;20726;-66
2023/11/20 07:30:02;;;;;;;5.65;1.55;;;16.60;68.90;;;;;;5053276;28;20207;-66
2023/11/20 07:32:28;;;;;;;2.97;1.38;;;16.80;68.50;;;;;;5053012;28;20261;-67
2023/11/20 07:34:54;;;;;;;3.38;1.70;;;17.10;67.90;;;;;;5051662;28;20748;-67
2023/11/20 07:37:21;;;;;;;5.93;1.80;;;17.30;67.00;;;;;;5052973;28;20294;-66
2023/11/20 07:39:47;;;;;;;3.30;1.63;;;17.50;66.40;;;;;;5052365;28;20685;-67
2023/11/20 07:42:14;;;;;;;4.25;1.55;;;17.60;65.70;;;;;;5053125;28;20266;-67
2023/11/20 07:44:40;;;;;;;4.70;1.55;;;17.60;65.60;;;;;;5053112;28;20254;-67
2023/11/20 07:47:05;;;;;;;4.93;1.70;;;17.70;65.50;;;;;;5052207;28;20266;-67
2023/11/20 07:49:31;;;;;;;3.03;1.65;;;17.80;65.20;;;;;;5052570;28;20735;-67
2023/11/20 07:51:57;;;;;;;4.10;1.95;;;17.80;65.10;;;;;;5052799;28;20734;-67
2023/11/20 07:54:22;;;;;;;4.25;1.45;;;17.80;65.00;;;;;;5052109;28;20195;-67
2023/11/20 07:56:48;;;;;;;4.80;1.75;;;17.90;65.10;;;;;;5052997;28;20179;-67
2023/11/20 07:59:13;;;;;;;3.17;1.60;;;17.90;65.10;;;;;;5052495;28;20163;-66
2023/11/20 08:01:39;;;;;;;4.07;1.45;;;17.80;65.00;;;;;;5052282;28;20252;-67
2023/11/20 08:04:05;;;;;;;3.00;1.40;;;17.80;65.20;;;;;;5052637;28;20578;-67
2023/11/20 08:06:33;;;;;;;3.70;1.50;;;17.80;65.30;;;;;;5051314;28;20175;-67
2023/11/20 08:08:59;;;;;;;5.30;2.13;;;17.70;65.50;;;;;;5051794;28;20538;-66
2023/11/20 08:11:25;;;;;;;3.45;1.40;;;17.60;65.70;;;;;;5052367;28;20183;-67
2023/11/20 08:13:50;;;;;;;4.00;1.75;;;17.50;66.00;;;;;;5052493;28;20220;-67
2023/11/20 08:16:16;;;;;;;6.50;2.10;;;17.50;66.10;;;;;;5051517;28;20171;-66
2023/11/20 08:18:42;;;;;;;5.22;1.77;;;17.50;66.30;;;;;;5052356;28;20179;-67
2023/11/20 08:21:07;;;;;;;3.22;1.48;;;17.40;66.30;;;;;;5052540;28;20175;-65
2023/11/20 08:23:34;;;;;;;2.47;1.30;;;17.40;66.40;;;;;;5051479;28;20175;-67
2023/11/20 08:25:59;;;;;;;3.58;1.48;;;17.40;66.40;;;;;;5052409;28;20207;-66
2023/11/20 08:28:25;;;;;;;3.20;1.55;;;17.40;66.50;;;;;;5052065;28;20760;-66
2023/11/20 08:30:50;;;;;;;4.43;1.42;;;17.40;66.50;;;;;;5051744;28;20211;-68
2023/11/20 08:33:16;;;;;;;5.95;2.10;;;17.40;66.60;;;;;;5051945;28;20175;-68
2023/11/20 08:35:41;;;;;;;5.10;1.92;;;17.40;66.70;;;;;;5052367;28;20182;-68
2023/11/20 08:38:07;;;;;;;2.97;1.52;;;17.30;66.70;;;;;;5051519;28;20266;-66
2023/11/20 08:40:32;;;;;;;5.38;2.17;;;17.30;66.70;;;;;;5051729;28;20611;-67
2023/11/20 08:42:58;;;;;;;5.25;1.73;;;17.20;66.90;;;;;;5051290;28;20186;-67
2023/11/20 08:45:23;;;;;;;4.57;1.92;;;17.20;67.00;;;;;;5051308;28;20264;-67
2023/11/20 08:47:49;;;;;;;2.38;1.45;;;17.20;67.20;;;;;;5052309;28;20250;-67
2023/11/20 08:50:14;;;;;;;5.47;1.85;;;17.10;67.30;;;;;;5050882;28;20375;-66
2023/11/20 08:52:40;;;;;;;4.05;1.75;;;17.10;67.40;;;;;;5052128;28;20695;-67
2023/11/20 08:55:06;;;;;;;4.28;1.58;;;17.10;67.50;;;;;;5052094;28;20174;-67
2023/11/20 08:57:33;;;;;;;5.07;1.90;;;17.10;67.70;;;;;;5049745;28;20699;-68
2023/11/20 08:59:59;;;;;;;5.25;1.50;;;17.10;68.00;;;;;;5052183;28;20266;-68
2023/11/20 09:02:24;;;;;;;5.40;2.03;;;17.10;68.00;;;;;;5051742;28;20265;-69
2023/11/20 09:04:50;;;;;;;4.85;1.75;;;17.00;68.40;;;;;;5051122;28;20187;-67
2023/11/20 09:07:15;;;;;;;4.03;2.08;;;17.00;68.50;;;;;;5051672;28;20174;-67
2023/11/20 09:09:41;;;;;;;5.72;1.77;;;16.90;68.40;;;;;;5051878;28;20662;-68
2023/11/20 09:12:07;;;;;;;4.95;1.85;;;16.90;68.80;;;;;;5051188;28;20199;-67
2023/11/20 09:14:33;;;;;;;3.28;1.42;;;17.00;69.00;;;;;;5051842;28;20673;-67
2023/11/20 09:16:58;;;;;;;3.95;2.08;;;16.90;68.90;;;;;;5052029;28;20175;-67
2023/11/20 09:19:24;;;;;;;6.55;2.20;;;17.00;69.00;;;;;;5051086;28;20543;-68
2023/11/20 09:21:50;;;;;;;5.57;1.80;;;17.00;69.00;;;;;;5051773;28;20270;-67
2023/11/20 09:24:15;;;;;;;4.03;1.77;;;17.00;68.90;;;;;;5051401;28;20172;-67
2023/11/20 09:26:41;;;;;;;4.72;1.50;;;16.90;68.90;;;;;;5051058;28;20189;-68
2023/11/20 09:29:07;;;;;;;4.93;1.83;;;16.90;69.20;;;;;;5051625;28;20588;-67
2023/11/20 09:31:35;;;;;;;4.35;1.40;;;16.90;69.10;;;;;;5051579;28;20657;-69
2023/11/20 09:34:01;;;;;;;7.75;1.95;;;16.90;69.20;;;;;;5051090;28;20178;-68
2023/11/20 09:36:27;;;;;;;7.50;1.85;;;16.90;69.20;;;;;;5051259;28;20183;-68
2023/11/20 09:38:53;;;;;;;5.38;2.38;;;16.90;69.40;;;;;;5051642;28;20187;-68
2023/11/20 09:41:18;;;;;;;6.63;2.15;;;16.90;69.40;;;;;;5050618;28;20179;-69
2023/11/20 09:43:44;;;;;;;8.38;2.35;;;16.90;69.40;;;;;;5051787;28;20167;-70
2023/11/20 09:46:11;;;;;;;3.63;1.30;;;16.90;69.40;;;;;;5051039;28;20237;-68
2023/11/20 09:48:37;;;;;;;5.00;1.83;;;16.90;69.40;;;;;;5051230;28;20175;-68
2023/11/20 09:51:05;;;;;;;5.55;1.95;;;16.80;69.40;;;;;;5050241;28;20219;-68
2023/11/20 09:53:37;;;;;;;7.07;1.90;;;16.90;69.50;;;;;;5049395;28;20175;-67
2023/11/20 09:56:03;;;;;;;5.97;2.20;;;16.80;69.60;;;;;;5050204;28;20217;-68
2023/11/20 09:58:32;;;;;;;6.07;2.13;;;16.80;69.80;;;;;;5054747;28;20254;-67
2023/11/20 10:01:15;;;;;;;6.70;2.15;;;16.70;69.80;;;;;;5054528;28;20587;-68
2023/11/20 10:03:41;;;;;;;4.55;2.17;;;16.70;69.80;;;;;;5053912;28;20587;-68
2023/11/20 10:06:07;;;;;;;5.90;2.40;;;16.80;69.90;;;;;;5054946;28;20695;-67
2023/11/20 10:08:37;;;;;;;5.07;1.80;;;16.80;69.90;;;;;;5053892;28;20171;-68
2023/11/20 10:11:04;;;;;;;3.85;1.63;;;16.80;69.80;;;;;;5055017;28;20214;-68
2023/11/20 10:13:30;;;;;;;4.13;1.88;;;16.80;69.70;;;;;;5054660;28;20532;-67
2023/11/20 10:15:56;;;;;;;5.00;1.80;;;16.80;70.50;;;;;;5054141;28;20186;-68
2023/11/20 10:18:21;;;;;;;4.32;1.60;;;16.90;69.70;;;;;;5036862;28;20171;-67
2023/11/20 10:20:48;;;;;;;5.68;2.17;;;16.80;69.60;;;;;;5054722;28;20665;-67
2023/11/20 10:23:15;;;;;;;4.80;2.22;;;16.80;69.70;;;;;;5053673;28;20203;-68
2023/11/20 10:25:43;;;;;;;4.78;2.08;;;16.80;69.60;;;;;;5054869;28;20179;-68
2023/11/20 10:28:09;;;;;;;4.03;1.92;;;16.80;69.80;;;;;;5053318;28;20175;-68
2023/11/20 10:30:35;;;;;;;4.60;1.80;;;16.80;69.80;;;;;;5053643;28;20226;-70
2023/11/20 10:33:01;;;;;;;3.90;1.90;;;16.80;69.90;;;;;;5054431;28;20201;-68
2023/11/20 10:35:27;;;;;;;5.10;2.17;;;16.80;69.90;;;;;;5051962;28;20224;-68
2023/11/20 10:38:03;;;;;;;6.45;1.88;;;16.80;69.90;;;;;;5053574;28;20713;-67
2023/11/20 10:40:29;;;;;;;9.15;2.42;;;16.80;69.90;;;;;;5053604;28;20173;-68
2023/11/20 10:42:57;;;;;;;4.22;1.92;;;16.70;70.00;;;;;;5053464;28;20179;-68
2023/11/20 10:45:23;;;;;;;4.45;1.95;;;16.70;70.20;;;;;;5053792;28;20171;-68
2023/11/20 10:47:48;;;;;;;6.15;2.28;;;16.70;70.30;;;;;;5052994;28;20178;-72
2023/11/20 10:50:15;;;;;;;6.63;2.08;;;16.70;70.80;;;;;;5051670;28;20595;-66
2023/11/20 10:52:40;;;;;;;6.35;2.28;;;16.60;70.50;;;;;;5054243;28;20201;-69
2023/11/20 10:55:06;;;;;;;7.72;2.38;;;16.70;70.80;;;;;;5054085;28;20265;-67
2023/11/20 10:57:32;;;;;;;6.60;2.40;;;16.60;70.70;;;;;;5035206;28;20190;-68
2023/11/20 10:59:58;;;;;;;5.07;2.05;;;16.60;70.70;;;;;;5052924;28;20203;-69
2023/11/20 11:02:25;;;;;;;7.18;2.05;;;16.60;70.70;;;;;;5052455;28;20692;-69
2023/11/20 11:04:52;;;;;;;5.72;2.08;;;16.60;70.80;;;;;;5052076;28;20175;-69
2023/11/20 11:07:17;;;;;;;5.75;2.00;;;16.60;70.80;;;;;;5053827;28;20171;-68
2023/11/20 11:09:42;;;;;;;6.65;2.20;;;16.70;70.70;;;;;;5052767;28;20206;-70
2023/11/20 11:12:11;;;;;;;7.05;2.38;;;16.70;70.90;;;;;;5051653;28;20532;-67
2023/11/20 11:14:36;;;;;;;4.95;2.10;;;16.60;70.40;;;;;;5053543;28;20170;-67
2023/11/20 11:17:06;;;;;;;8.68;3.00;;;16.60;71.20;;;;;;5053382;28;20171;-67
2023/11/20 11:19:43;;;;;;;4.72;2.13;;;16.60;70.80;;;;;;5051728;28;20175;-68
2023/11/20 11:22:13;;;;;;;6.47;2.67;;;16.70;70.60;;;;;;5036311;28;20218;-67
2023/11/20 11:24:39;;;;;;;5.18;2.10;;;16.70;70.60;;;;;;5051634;28;20175;-68
2023/11/20 11:27:09;;;;;;;5.75;2.08;;;16.70;70.80;;;;;;5052169;28;20646;-67
2023/11/20 11:29:38;;;;;;;7.57;2.05;;;16.70;70.90;;;;;;5051747;28;20587;-68
2023/11/20 11:32:06;;;;;;;6.70;2.55;;;16.70;70.60;;;;;;5035327;28;20179;-68
2023/11/20 11:34:35;;;;;;;6.63;2.55;;;16.70;71.40;;;;;;5053182;28;20177;-68
2023/11/20 11:37:10;;;;;;;4.80;2.00;;;16.70;71.10;;;;;;5053219;28;20269;-67
2023/11/20 11:39:42;;;;;;;6.32;2.13;;;16.60;70.80;;;;;;5034821;28;20187;-68
2023/11/20 11:42:32;;;;;;;6.35;2.40;;;16.70;70.80;;;;;;5051886;28;20555;-68
2023/11/20 11:44:59;;;;;;;6.55;2.13;;;16.70;70.90;;;;;;5035840;28;20183;-68
2023/11/20 11:47:26;;;;;;;7.18;2.40;;;16.70;70.90;;;;;;5052238;28;20177;-69
2023/11/20 11:49:52;;;;;;;5.40;2.50;;;16.60;70.90;;;;;;5052777;28;20223;-69
2023/11/20 11:52:30;;;;;;;6.95;2.85;;;16.60;70.90;;;;;;5052689;28;20179;-68
2023/11/20 11:55:11;;;;;;;5.10;2.83;;;16.60;71.20;;;;;;5052035;28;20612;-68
2023/11/20 11:57:36;;;;;;;8.13;2.40;;;16.60;71.10;;;;;;5052558;28;20171;-70
2023/11/20 12:00:11;;;;;;;5.63;2.50;;;16.60;71.30;;;;;;5033927;28;20278;-69
2023/11/20 12:02:52;;;;;;;8.35;2.97;;;16.60;71.30;;;;;;5052579;28;20185;-70
2023/11/20 12:05:18;;;;;;;5.15;1.98;;;16.60;71.10;;;;;;5052189;28;20171;-70
2023/11/20 12:07:49;;;;;;;7.25;2.67;;;16.60;71.30;;;;;;5051914;28;20215;-67
2023/11/20 12:10:16;;;;;;;9.23;3.13;;;16.60;71.10;;;;;;5052236;28;20584;-66
2023/11/20 12:12:44;;;;;;;7.20;2.70;;;16.60;71.00;;;;;;5052508;28;20171;-67
2023/11/20 12:15:28;;;;;;;3.85;2.30;;;16.60;70.90;;;;;;5051933;28;20179;-66
2023/11/20 12:17:55;;;;;;;4.15;2.03;;;16.60;70.90;;;;;;5052347;28;20182;-68
2023/11/20 12:20:25;;;;;;;4.78;2.38;;;16.60;70.90;;;;;;5051695;28;20653;-66
2023/11/20 12:22:51;;;;;;;4.43;2.25;;;16.60;70.90;;;;;;5051773;28;20244;-67
2023/11/20 12:25:17;;;;;;;3.92;2.25;;;16.60;70.80;;;;;;5051064;28;20175;-67
2023/11/20 12:27:45;;;;;;;7.68;2.72;;;16.60;70.90;;;;;;5051025;28;20175;-67
2023/11/20 12:30:12;;;;;;;5.88;2.55;;;16.60;70.80;;;;;;5050259;28;20242;-67
2023/11/20 12:32:37;;;;;;;3.42;2.38;;;16.60;70.70;;;;;;5052226;28;20171;-69
2023/11/20 12:35:08;;;;;;;6.05;2.50;;;16.60;70.70;;;;;;5051809;28;20198;-68
2023/11/20 12:37:34;;;;;;;7.20;2.40;;;16.70;70.50;;;;;;5051943;28;20183;-68
2023/11/20 12:40:00;;;;;;;5.82;2.72;;;16.80;70.40;;;;;;5034420;28;20186;-69
2023/11/20 12:42:25;;;;;;;5.65;1.92;;;16.80;70.20;;;;;;5049890;28;20171;-70
2023/11/20 12:44:51;;;;;;;5.68;1.90;;;16.80;70.40;;;;;;5052040;28;20179;-69